Time,TemperatureF,DewpointF,PressureIn,WindDirection,WindDirectionDegrees,WindSpeedMPH,WindSpeedGustMPH,Humidity,HourlyPrecipIn,Conditions,Clouds,dailyrainin,SoftwareType,DateUTC
2013-05-23 00:13:00,64.4,61.1,29.74,North,0,1.6,-999.0,89,-99.99,,,0.00,Acu-Link.com,2013-05-23 04:13:00,
2013-05-23 00:28:00,64.4,61.1,29.75,NW,315,1.1,-999.0,89,-99.99,,,0.00,Acu-Link.com,2013-05-23 04:28:00,
2013-05-23 00:43:00,66.2,62.9,29.76,NNE,22,0.0,-999.0,89,-99.99,,,0.00,Acu-Link.com,2013-05-23 04:43:00,
2013-05-23 00:59:00,66.2,62.9,29.77,NNE,22,0.0,-999.0,89,-99.99,,,0.00,Acu-Link.com,2013-05-23 04:59:00,
2013-05-23 01:14:00,66.2,62.5,29.76,NNE,22,0.0,-999.0,88,-99.99,,,0.00,Acu-Link.com,2013-05-23 05:14:00,
2013-05-23 01:29:00,66.2,62.9,29.75,NNE,22,0.0,-999.0,89,-99.99,,,0.00,Acu-Link.com,2013-05-23 05:29:00,
2013-05-23 01:45:00,64.4,61.4,29.74,North,0,0.0,-999.0,90,-99.99,,,0.00,Acu-Link.com,2013-05-23 05:45:00,
2013-05-23 02:00:00,66.2,62.9,29.75,North,0,0.0,-999.0,89,-99.99,,,0.00,Acu-Link.com,2013-05-23 06:00:00,
2013-05-23 02:15:00,66.2,62.9,29.75,SE,135,2.0,-999.0,89,-99.99,,,0.01,Acu-Link.com,2013-05-23 06:15:00,
2013-05-23 02:31:00,64.4,61.7,29.73,NNW,337,0.0,-999.0,91,-99.99,,,0.14,Acu-Link.com,2013-05-23 06:31:00,
2013-05-23 02:46:00,64.4,62.6,29.72,SSE,157,1.6,-999.0,94,-99.99,,,0.21,Acu-Link.com,2013-05-23 06:46:00,
2013-05-23 03:01:00,64.4,63.2,29.71,SW,225,0.0,-999.0,96,-99.99,,,0.21,Acu-Link.com,2013-05-23 07:01:00,
2013-05-23 03:16:00,64.4,63.2,29.70,SSW,202,1.6,-999.0,96,-99.99,,,0.21,Acu-Link.com,2013-05-23 07:16:00,
2013-05-23 03:31:00,64.4,63.2,29.71,SW,225,0.0,-999.0,96,-99.99,,,0.21,Acu-Link.com,2013-05-23 07:31:00,
2013-05-23 03:47:00,64.4,63.2,29.71,North,0,0.0,-999.0,96,-99.99,,,0.22,Acu-Link.com,2013-05-23 07:47:00,
2013-05-23 04:02:00,64.4,63.2,29.72,WSW,247,0.0,-999.0,96,-99.99,,,0.22,Acu-Link.com,2013-05-23 08:02:00,
2013-05-23 04:18:00,64.4,63.2,29.72,North,0,1.1,-999.0,96,-99.99,,,0.22,Acu-Link.com,2013-05-23 08:18:00,
2013-05-23 04:33:00,64.4,63.2,29.72,West,270,0.0,-999.0,96,-99.99,,,0.22,Acu-Link.com,2013-05-23 08:33:00,
2013-05-23 04:48:00,64.4,63.5,29.73,WNW,292,1.6,-999.0,97,-99.99,,,0.22,Acu-Link.com,2013-05-23 08:48:00,
2013-05-23 05:03:00,64.4,63.5,29.73,NNE,22,0.0,-999.0,97,-99.99,,,0.22,Acu-Link.com,2013-05-23 09:03:00,
2013-05-23 05:18:00,64.4,63.5,29.72,NNW,337,0.0,-999.0,97,-99.99,,,0.22,Acu-Link.com,2013-05-23 09:18:00,
2013-05-23 05:33:00,64.4,63.5,29.73,NNE,22,0.0,-999.0,97,-99.99,,,0.22,Acu-Link.com,2013-05-23 09:33:00,
2013-05-23 05:48:00,64.4,63.5,29.72,NNE,22,0.0,-999.0,97,-99.99,,,0.22,Acu-Link.com,2013-05-23 09:48:00,
2013-05-23 06:04:00,64.4,63.5,29.72,North,0,0.0,-999.0,97,-99.99,,,0.22,Acu-Link.com,2013-05-23 10:04:00,
2013-05-23 06:19:00,64.4,63.5,29.72,NW,315,0.0,-999.0,97,-99.99,,,0.22,Acu-Link.com,2013-05-23 10:19:00,
2013-05-23 06:34:00,64.4,63.5,29.73,NNE,22,0.0,-999.0,97,-99.99,,,0.22,Acu-Link.com,2013-05-23 10:34:00,
2013-05-23 06:49:00,64.4,63.5,29.73,NE,45,0.0,-999.0,97,-99.99,,,0.22,Acu-Link.com,2013-05-23 10:49:00,
2013-05-23 07:04:00,64.4,63.5,29.73,West,270,0.0,-999.0,97,-99.99,,,0.22,Acu-Link.com,2013-05-23 11:04:00,
2013-05-23 07:19:00,64.4,63.5,29.73,WNW,292,0.0,-999.0,97,-99.99,,,0.22,Acu-Link.com,2013-05-23 11:19:00,
2013-05-23 07:35:00,66.2,65.3,29.73,NE,45,0.0,-999.0,97,-99.99,,,0.22,Acu-Link.com,2013-05-23 11:35:00,
2013-05-23 07:50:00,66.2,65.0,29.73,North,0,1.6,-999.0,96,-99.99,,,0.22,Acu-Link.com,2013-05-23 11:50:00,
2013-05-23 08:05:00,68.0,65.9,29.73,SSE,157,2.0,-999.0,93,-99.99,,,0.22,Acu-Link.com,2013-05-23 12:05:00,
2013-05-23 08:20:00,68.0,65.9,29.73,East,90,0.0,-999.0,93,-99.99,,,0.22,Acu-Link.com,2013-05-23 12:20:00,
2013-05-23 08:35:00,69.8,67.0,29.72,SSE,157,2.0,-999.0,91,-99.99,,,0.22,Acu-Link.com,2013-05-23 12:35:00,
2013-05-23 08:51:00,69.8,66.1,29.72,South,180,4.0,-999.0,88,-99.99,,,0.22,Acu-Link.com,2013-05-23 12:51:00,
2013-05-23 09:06:00,71.6,67.9,29.72,West,270,1.6,-999.0,88,-99.99,,,0.22,Acu-Link.com,2013-05-23 13:06:00,
2013-05-23 09:21:00,71.6,66.5,29.72,WNW,292,1.6,-999.0,84,-99.99,,,0.22,Acu-Link.com,2013-05-23 13:21:00,
2013-05-23 09:36:00,73.4,66.8,29.72,East,90,1.6,-999.0,80,-99.99,,,0.22,Acu-Link.com,2013-05-23 13:36:00,
2013-05-23 09:52:00,75.2,68.2,29.72,WNW,292,0.0,-999.0,79,-99.99,,,0.22,Acu-Link.com,2013-05-23 13:52:00,
2013-05-23 10:07:00,73.4,66.8,29.72,SSE,157,2.0,-999.0,80,-99.99,,,0.22,Acu-Link.com,2013-05-23 14:07:00,
2013-05-23 10:22:00,71.6,65.8,29.73,South,180,1.6,-999.0,82,-99.99,,,0.22,Acu-Link.com,2013-05-23 14:22:00,
2013-05-23 10:37:00,73.4,67.2,29.73,SW,225,1.1,-999.0,81,-99.99,,,0.22,Acu-Link.com,2013-05-23 14:37:00,
2013-05-23 10:53:00,73.4,66.8,29.73,West,270,0.0,-999.0,80,-99.99,,,0.22,Acu-Link.com,2013-05-23 14:53:00,
2013-05-23 11:08:00,73.4,67.2,29.73,SSE,157,1.1,-999.0,81,-99.99,,,0.22,Acu-Link.com,2013-05-23 15:08:00,
2013-05-23 11:23:00,71.6,66.5,29.73,SW,225,2.7,-999.0,84,-99.99,,,0.22,Acu-Link.com,2013-05-23 15:23:00,
2013-05-23 11:38:00,71.6,65.5,29.72,South,180,4.7,-999.0,81,-99.99,,,0.22,Acu-Link.com,2013-05-23 15:38:00,
2013-05-23 11:53:00,73.4,67.2,29.73,South,180,3.1,-999.0,81,-99.99,,,0.22,Acu-Link.com,2013-05-23 15:53:00,
2013-05-23 12:09:00,71.6,66.5,29.73,SSW,202,3.1,-999.0,84,-99.99,,,0.22,Acu-Link.com,2013-05-23 16:09:00,
2013-05-23 12:24:00,73.4,67.6,29.72,ESE,112,1.6,-999.0,82,-99.99,,,0.22,Acu-Link.com,2013-05-23 16:24:00,
2013-05-23 12:39:00,71.6,65.8,29.72,South,180,2.7,-999.0,82,-99.99,,,0.22,Acu-Link.com,2013-05-23 16:39:00,
2013-05-23 12:54:00,73.4,67.6,29.72,South,180,2.0,-999.0,82,-99.99,,,0.22,Acu-Link.com,2013-05-23 16:54:00,
2013-05-23 13:10:00,73.4,67.2,29.72,SSE,157,2.7,-999.0,81,-99.99,,,0.22,Acu-Link.com,2013-05-23 17:10:00,
2013-05-23 13:25:00,73.4,67.6,29.71,South,180,3.1,-999.0,82,-99.99,,,0.22,Acu-Link.com,2013-05-23 17:25:00,
2013-05-23 13:40:00,73.4,67.9,29.71,SSE,157,4.7,-999.0,83,-99.99,,,0.22,Acu-Link.com,2013-05-23 17:40:00,
2013-05-23 13:56:00,73.4,67.9,29.71,SW,225,1.6,-999.0,83,-99.99,,,0.22,Acu-Link.com,2013-05-23 17:56:00,
2013-05-23 14:11:00,73.4,66.5,29.71,SSW,202,3.1,-999.0,79,-99.99,,,0.22,Acu-Link.com,2013-05-23 18:11:00,
2013-05-23 14:26:00,78.8,69.0,29.69,SSE,157,1.6,-999.0,72,-99.99,,,0.22,Acu-Link.com,2013-05-23 18:26:00,
2013-05-23 14:41:00,78.8,66.5,29.68,ESE,112,5.1,-999.0,66,-99.99,,,0.22,Acu-Link.com,2013-05-23 18:41:00,
2013-05-23 14:56:00,84.2,67.8,29.67,NNE,22,3.6,-999.0,58,-99.99,,,0.22,Acu-Link.com,2013-05-23 18:56:00,
2013-05-23 15:11:00,82.4,66.6,29.66,NE,45,2.0,-999.0,59,-99.99,,,0.22,Acu-Link.com,2013-05-23 19:11:00,
2013-05-23 15:27:00,80.6,67.3,29.66,South,180,3.6,-999.0,64,-99.99,,,0.22,Acu-Link.com,2013-05-23 19:27:00,
2013-05-23 15:42:00,82.4,68.0,29.66,South,180,2.7,-999.0,62,-99.99,,,0.22,Acu-Link.com,2013-05-23 19:42:00,
2013-05-23 15:57:00,82.4,68.0,29.65,SSE,157,3.6,-999.0,62,-99.99,,,0.22,Acu-Link.com,2013-05-23 19:57:00,
2013-05-23 16:12:00,80.6,66.8,29.64,West,270,2.7,-999.0,63,-99.99,,,0.22,Acu-Link.com,2013-05-23 20:12:00,
2013-05-23 16:27:00,89.6,69.6,29.64,ENE,67,3.1,-999.0,52,-99.99,,,0.22,Acu-Link.com,2013-05-23 20:27:00,
2013-05-23 16:43:00,89.6,70.2,29.63,WNW,292,1.6,-999.0,53,-99.99,,,0.22,Acu-Link.com,2013-05-23 20:43:00,
2013-05-23 16:58:00,87.8,67.9,29.63,WNW,292,0.0,-999.0,52,-99.99,,,0.22,Acu-Link.com,2013-05-23 20:58:00,
2013-05-23 17:13:00,82.4,67.1,29.63,SSW,202,1.6,-999.0,60,-99.99,,,0.22,Acu-Link.com,2013-05-23 21:13:00,
2013-05-23 17:28:00,80.6,67.3,29.63,South,180,2.0,-999.0,64,-99.99,,,0.22,Acu-Link.com,2013-05-23 21:28:00,
2013-05-23 17:43:00,80.6,66.8,29.63,SSW,202,2.0,-999.0,63,-99.99,,,0.22,Acu-Link.com,2013-05-23 21:43:00,
2013-05-23 17:59:00,80.6,67.3,29.62,South,180,3.6,-999.0,64,-99.99,,,0.22,Acu-Link.com,2013-05-23 21:59:00,
2013-05-23 18:14:00,78.8,66.9,29.62,WNW,292,2.7,-999.0,67,-99.99,,,0.22,Acu-Link.com,2013-05-23 22:14:00,
2013-05-23 18:29:00,78.8,68.2,29.62,East,90,2.7,-999.0,70,-99.99,,,0.22,Acu-Link.com,2013-05-23 22:29:00,
2013-05-23 18:45:00,78.8,68.2,29.62,WSW,247,0.0,-999.0,70,-99.99,,,0.22,Acu-Link.com,2013-05-23 22:45:00,
2013-05-23 19:00:00,77.0,67.7,29.61,West,270,0.0,-999.0,73,-99.99,,,0.22,Acu-Link.com,2013-05-23 23:00:00,
2013-05-23 19:15:00,77.0,67.7,29.61,WSW,247,0.0,-999.0,73,-99.99,,,0.22,Acu-Link.com,2013-05-23 23:15:00,
2013-05-23 19:30:00,77.0,67.3,29.61,SSE,157,2.0,-999.0,72,-99.99,,,0.22,Acu-Link.com,2013-05-23 23:30:00,
2013-05-23 19:46:00,77.0,68.5,29.61,WNW,292,1.6,-999.0,75,-99.99,,,0.22,Acu-Link.com,2013-05-23 23:46:00,
2013-05-23 20:01:00,75.2,67.1,29.61,NNE,22,1.1,-999.0,76,-99.99,,,0.22,Acu-Link.com,2013-05-24 00:01:00,
2013-05-23 20:16:00,73.4,66.1,29.61,NW,315,0.0,-999.0,78,-99.99,,,0.22,Acu-Link.com,2013-05-24 00:16:00,
2013-05-23 20:31:00,71.6,65.5,29.60,NNE,22,0.0,-999.0,81,-99.99,,,0.22,Acu-Link.com,2013-05-24 00:31:00,
2013-05-23 20:47:00,71.6,66.2,29.60,NNE,22,2.0,-999.0,83,-99.99,,,0.22,Acu-Link.com,2013-05-24 00:47:00,
2013-05-23 21:02:00,71.6,66.5,29.62,NNE,22,0.0,-999.0,84,-99.99,,,0.22,Acu-Link.com,2013-05-24 01:02:00,
2013-05-23 21:17:00,69.8,65.4,29.63,NNE,22,0.0,-999.0,86,-99.99,,,0.22,Acu-Link.com,2013-05-24 01:17:00,
2013-05-23 21:32:00,69.8,65.7,29.63,NNW,337,2.0,-999.0,87,-99.99,,,0.22,Acu-Link.com,2013-05-24 01:32:00,
2013-05-23 21:48:00,69.8,66.1,29.64,SSW,202,1.6,-999.0,88,-99.99,,,0.22,Acu-Link.com,2013-05-24 01:48:00,
2013-05-23 22:03:00,69.8,65.7,29.65,NW,315,0.0,-999.0,87,-99.99,,,0.23,Acu-Link.com,2013-05-24 02:03:00,
2013-05-23 22:18:00,69.8,66.7,29.65,NE,45,1.1,-999.0,90,-99.99,,,0.30,Acu-Link.com,2013-05-24 02:18:00,
2013-05-23 22:33:00,68.0,64.6,29.66,NE,45,1.6,-999.0,89,-99.99,,,0.30,Acu-Link.com,2013-05-24 02:33:00,
2013-05-23 22:48:00,66.2,63.2,29.67,West,270,3.1,-999.0,90,-99.99,,,0.30,Acu-Link.com,2013-05-24 02:48:00,
2013-05-23 23:04:00,64.4,61.7,29.67,North,0,1.1,-999.0,91,-99.99,,,0.30,Acu-Link.com,2013-05-24 03:04:00,
2013-05-23 23:19:00,64.4,62.0,29.67,NNE,22,0.0,-999.0,92,-99.99,,,0.30,Acu-Link.com,2013-05-24 03:19:00,
2013-05-23 23:34:00,64.4,62.3,29.68,ENE,67,0.0,-999.0,93,-99.99,,,0.30,Acu-Link.com,2013-05-24 03:34:00,
2013-05-23 23:50:00,64.4,62.3,29.68,NNE,22,0.0,-999.0,93,-99.99,,,0.30,Acu-Link.com,2013-05-24 03:50:00,